Time;durP1;ratioP1;P1;durP2;ratioP2;P2;SDS_P1;SDS_P2;PMS_P1;PMS_P2;Temp;Humidity;BMP_temperature;BMP_pressure;BME280_temperature;BME280_humidity;BME280_pressure;Samples;Min_cycle;Max_cycle;Signal;HPM_P1;HPM_P2
2023/12/05 11:24:04;;;;;;;22.65;12.98;;;;;;;4.53;54.01;101241.27;1819411;76;28753;-87
2023/12/05 11:28:05;;;;;;;19.52;12.53;;;;;;;4.67;53.11;101247.01;1774146;79;21340;-90
2023/12/05 11:31:22;;;;;;;20.32;12.70;;;;;;;4.86;52.41;101227.01;1773493;79;21317;-89
2023/12/05 11:34:46;;;;;;;21.77;12.50;;;;;;;4.64;52.59;101217.42;1778320;79;21172;-90
2023/12/05 11:38:16;;;;;;;19.15;11.40;;;;;;;4.80;52.20;101222.56;1745064;79;21272;-89
2023/12/05 11:41:24;;;;;;;17.35;9.85;;;;;;;4.77;51.94;101233.13;1770074;79;21294;-90
2023/12/05 11:44:32;;;;;;;17.50;9.78;;;;;;;4.72;50.87;101225.84;1779059;79;21260;-89
2023/12/05 11:47:41;;;;;;;16.40;9.98;;;;;;;4.69;50.53;101231.48;1772441;79;21258;-89
2023/12/05 11:50:53;;;;;;;16.73;10.48;;;;;;;4.76;50.24;101222.42;1771319;79;21627;-89
2023/12/05 11:54:01;;;;;;;19.75;11.68;;;;;;;4.82;49.80;101214.67;1775614;79;21268;-89
2023/12/05 11:57:28;;;;;;;19.45;10.75;;;;;;;4.78;49.76;101215.88;1773893;79;21684;-88
2023/12/05 12:00:34;;;;;;;19.55;10.28;;;;;;;4.87;49.35;101221.95;1747203;80;21317;-88
2023/12/05 12:04:03;;;;;;;20.25;10.60;;;;;;;5.19;48.74;101222.68;1740816;79;21291;-88
2023/12/05 12:07:09;;;;;;;24.47;12.35;;;;;;;4.77;49.16;101222.78;1761635;79;21898;-89
2023/12/05 12:10:14;;;;;;;15.83;9.90;;;;;;;4.93;48.63;101216.55;1763547;79;21327;-88
2023/12/05 12:13:22;;;;;;;18.20;10.28;;;;;;;4.94;48.53;101226.44;1751123;79;21290;-88
2023/12/05 12:16:29;;;;;;;16.95;9.15;;;;;;;4.64;48.67;101240.45;1775173;79;21302;-89
2023/12/05 12:19:37;;;;;;;13.18;9.08;;;;;;;4.71;48.65;101243.09;1773546;79;21259;-88
2023/12/05 12:22:43;;;;;;;21.70;12.55;;;;;;;5.05;47.93;101237.80;1767427;79;21336;-90
2023/12/05 12:26:00;;;;;;;19.30;11.38;;;;;;;5.05;48.11;101227.81;1770752;79;21281;-90
2023/12/05 12:29:15;;;;;;;17.75;9.93;;;;;;;5.08;48.04;101219.92;1727531;81;21337;-88
2023/12/05 12:32:22;;;;;;;14.38;9.45;;;;;;;5.10;47.76;101218.83;1741827;81;21281;-88
2023/12/05 12:35:31;;;;;;;22.27;11.40;;;;;;;4.67;47.95;101214.48;1737141;81;21918;-90
2023/12/05 12:38:39;;;;;;;20.00;11.18;;;;;;;4.75;47.52;101212.06;1772363;79;21201;-90
2023/12/05 12:41:47;;;;;;;21.10;11.68;;;;;;;4.61;47.85;101210.41;1761745;79;21343;-90
2023/12/05 12:44:54;;;;;;;16.87;10.53;;;;;;;4.67;47.95;101217.20;1764542;79;21902;-89
2023/12/05 12:48:06;;;;;;;17.98;11.00;;;;;;;4.73;47.83;101224.86;1776218;79;21292;-90
2023/12/05 12:51:11;;;;;;;21.87;11.15;;;;;;;4.44;48.49;101238.39;1747715;80;21903;-90
2023/12/05 12:54:19;;;;;;;18.52;10.58;;;;;;;4.57;48.53;101224.30;1756281;79;21301;-90
2023/12/05 12:57:29;;;;;;;17.52;10.32;;;;;;;4.35;48.41;101206.93;1736695;79;21267;-89
2023/12/05 13:00:36;;;;;;;16.90;11.00;;;;;;;4.31;48.51;101208.62;1763062;79;21835;-89
2023/12/05 13:03:43;;;;;;;19.40;11.57;;;;;;;4.26;48.83;101222.51;1748920;79;21285;-89
2023/12/05 13:06:51;;;;;;;18.25;11.18;;;;;;;4.24;49.22;101223.13;1768875;79;21878;-90
2023/12/05 13:09:58;;;;;;;17.35;10.72;;;;;;;4.04;49.98;101215.58;1769176;79;21305;-89
2023/12/05 13:13:11;;;;;;;24.52;12.23;;;;;;;4.17;49.63;101215.06;1765919;79;21271;-89
2023/12/05 13:16:18;;;;;;;20.70;11.33;;;;;;;4.35;48.95;101226.38;1758864;79;21296;-89
2023/12/05 13:19:35;;;;;;;29.67;16.57;;;;;;;4.71;48.32;101224.13;1762998;79;21253;-89
2023/12/05 13:22:42;;;;;;;39.60;18.52;;;;;;;4.78;47.97;101223.15;1763187;79;21286;-90
2023/12/05 13:25:49;;;;;;;72.97;30.10;;;;;;;4.66;48.43;101216.83;1729066;81;21323;-90
2023/12/05 13:28:56;;;;;;;68.20;29.65;;;;;;;4.65;48.29;101212.86;1740117;81;21279;-88
2023/12/05 13:32:02;;;;;;;83.75;28.35;;;;;;;4.81;47.61;101214.30;1698978;81;21356;-89
2023/12/05 13:35:09;;;;;;;52.15;26.87;;;;;;;4.66;47.54;101207.34;1734210;81;21259;-90
2023/12/05 13:38:14;;;;;;;40.98;18.62;;;;;;;4.79;47.89;101216.25;1723450;82;21311;-89
2023/12/05 13:41:22;;;;;;;22.82;14.50;;;;;;;4.78;48.06;101224.01;1727702;81;21780;-88
2023/12/05 13:44:28;;;;;;;23.98;12.28;;;;;;;4.75;48.55;101226.08;1689159;84;21821;-88
2023/12/05 13:47:33;;;;;;;66.82;32.45;;;;;;;4.50;49.14;101227.94;1669830;84;21328;-88
2023/12/05 13:50:39;;;;;;;47.33;25.35;;;;;;;4.29;49.63;101229.55;1693114;84;21866;-89
2023/12/05 13:53:46;;;;;;;73.00;29.63;;;;;;;4.15;50.01;101223.80;1721246;81;21892;-88
2023/12/05 13:56:53;;;;;;;30.97;14.38;;;;;;;4.15;50.55;101207.55;1701205;82;21324;-89
2023/12/05 14:00:00;;;;;;;24.23;13.72;;;;;;;3.95;50.83;101208.13;1731683;82;21307;-89
2023/12/05 14:03:08;;;;;;;21.45;11.55;;;;;;;3.91;51.10;101199.89;1737778;81;21322;-89
2023/12/05 14:06:16;;;;;;;21.95;12.53;;;;;;;3.92;51.24;101201.61;1753228;81;21327;-89
2023/12/05 14:09:23;;;;;;;28.15;16.67;;;;;;;3.81;51.53;101211.38;1732326;81;21315;-90
2023/12/05 14:12:30;;;;;;;41.02;15.83;;;;;;;3.99;51.40;101196.97;1736286;80;21323;-89
2023/12/05 14:15:37;;;;;;;28.77;15.40;;;;;;;4.01;51.45;101206.35;1730185;82;21757;-89
2023/12/05 14:18:43;;;;;;;40.00;18.73;;;;;;;3.90;51.54;101213.02;1729386;83;22006;-90
2023/12/05 14:21:50;;;;;;;40.43;22.70;;;;;;;3.76;51.93;101227.05;1726425;83;21975;-89
2023/12/05 14:24:57;;;;;;;41.68;20.20;;;;;;;3.80;52.12;101216.39;1733138;81;21363;-89
2023/12/05 14:28:04;;;;;;;39.35;18.48;;;;;;;3.84;52.33;101212.49;1764631;79;21319;-90
2023/12/05 14:31:10;;;;;;;72.97;30.40;;;;;;;3.83;52.57;101216.18;1765762;79;21907;-88
2023/12/05 14:34:17;;;;;;;66.25;28.77;;;;;;;3.81;52.54;101203.72;1773767;80;21347;-89
2023/12/05 14:37:24;;;;;;;121.97;44.50;;;;;;;3.69;53.13;101193.31;1759451;79;21326;-89
2023/12/05 14:40:32;;;;;;;38.78;18.85;;;;;;;3.49;53.77;101189.83;1745423;82;21405;-90
2023/12/05 14:43:38;;;;;;;363.25;116.22;;;;;;;3.52;53.78;101203.97;1753105;81;21335;-88
2023/12/05 14:46:45;;;;;;;246.68;85.62;;;;;;;3.41;54.18;101199.83;1760586;79;21266;-90
2023/12/05 14:49:52;;;;;;;78.17;32.80;;;;;;;3.61;53.74;101203.81;1760526;80;21326;-90
2023/12/05 14:52:59;;;;;;;563.25;197.95;;;;;;;3.54;53.73;101195.77;1771177;80;21311;-90
2023/12/05 14:56:06;;;;;;;251.32;76.10;;;;;;;3.52;53.94;101174.70;1765277;81;21922;-91
2023/12/05 14:59:12;;;;;;;719.83;277.85;;;;;;;3.46;54.32;101181.92;1770496;79;21315;-89
2023/12/05 15:02:20;;;;;;;227.05;63.92;;;;;;;3.45;54.34;101180.20;1770508;80;21926;-89
2023/12/05 15:05:27;;;;;;;35.73;16.80;;;;;;;3.42;54.42;101169.59;1772868;80;21271;-88
2023/12/05 15:08:35;;;;;;;668.13;240.72;;;;;;;3.45;54.76;101175.65;1762477;81;21310;-87
2023/12/05 15:11:41;;;;;;;689.05;244.47;;;;;;;3.49;54.54;101180.36;1764472;81;21319;-89
2023/12/05 15:14:47;;;;;;;671.25;217.93;;;;;;;3.47;54.52;101176.88;1768913;79;21859;-88
2023/12/05 15:17:54;;;;;;;424.38;114.17;;;;;;;3.25;54.95;101177.07;1763592;79;21336;-87
2023/12/05 15:21:00;;;;;;;557.25;161.80;;;;;;;3.26;55.19;101172.53;1764625;79;21296;-89
2023/12/05 15:24:06;;;;;;;551.25;152.38;;;;;;;3.19;55.10;101168.02;1771120;80;21263;-89
2023/12/05 15:27:13;;;;;;;626.63;199.05;;;;;;;3.26;54.98;101168.47;1769456;80;21346;-89
2023/12/05 15:30:20;;;;;;;747.52;218.75;;;;;;;3.20;55.03;101164.83;1754080;81;21327;-90
2023/12/05 15:33:27;;;;;;;184.72;46.83;;;;;;;2.99;55.39;101155.91;1768002;80;21876;-91
2023/12/05 15:36:33;;;;;;;358.52;96.75;;;;;;;2.78;56.40;101170.44;1768266;81;21800;-89
2023/12/05 15:39:40;;;;;;;141.00;36.88;;;;;;;2.86;56.51;101167.67;1773119;79;21271;-89
2023/12/05 15:42:48;;;;;;;32.45;14.55;;;;;;;2.87;56.39;101168.05;1775476;80;21334;-90
2023/12/05 15:45:55;;;;;;;29.42;13.10;;;;;;;2.81;56.53;101147.73;1768563;81;21276;-90
2023/12/05 15:48:55;;;;;;;;;;;;;;;2.77;56.72;101145.72;1762968;80;21291;-89
2023/12/05 15:52:01;;;;;;;32.00;14.95;;;;;;;2.75;56.88;101161.18;1773608;80;20658;-89
2023/12/05 15:55:02;;;;;;;23.75;14.63;;;;;;;2.75;56.93;101159.83;1767109;79;21378;-89
2023/12/05 15:58:09;;;;;;;21.95;12.73;;;;;;;2.68;57.28;101153.13;1769946;79;21314;-89
2023/12/05 16:01:16;;;;;;;21.40;12.33;;;;;;;2.61;57.81;101151.80;1771308;79;21813;-89
2023/12/05 16:04:29;;;;;;;219.47;59.75;;;;;;;2.73;57.73;101152.33;1771301;80;21871;-90
2023/12/05 16:07:40;;;;;;;67.55;23.52;;;;;;;2.73;57.83;101165.84;1762349;80;21923;-89
2023/12/05 16:10:47;;;;;;;105.30;31.75;;;;;;;2.78;57.94;101169.08;1771137;81;21272;-90
2023/12/05 16:13:54;;;;;;;36.45;18.23;;;;;;;2.69;58.54;101164.31;1769048;81;21389;-91
2023/12/05 16:17:06;;;;;;;27.05;16.12;;;;;;;2.71;58.61;101148.84;1768334;81;21300;-90
2023/12/05 16:20:14;;;;;;;28.15;16.60;;;;;;;2.85;58.39;101145.19;1771593;79;21291;-90
2023/12/05 16:23:20;;;;;;;40.12;18.05;;;;;;;2.59;59.45;101144.77;1753375;81;21792;-90
2023/12/05 16:26:20;;;;;;;38.30;17.12;;;;;;;2.68;59.40;101150.89;1770649;81;21287;-90
2023/12/05 16:29:20;;;;;;;26.05;14.87;;;;;;;2.76;59.13;101149.39;1756074;80;21300;-91
2023/12/05 16:32:26;;;;;;;32.08;17.32;;;;;;;2.71;59.46;101144.80;1770575;79;21331;-89
2023/12/05 16:35:31;;;;;;;32.48;18.35;;;;;;;2.81;59.58;101136.92;1738260;82;21493;-91
2023/12/05 16:38:36;;;;;;;30.08;18.20;;;;;;;2.87;59.39;101124.81;1753681;80;21308;-90
2023/12/05 16:41:42;;;;;;;35.45;18.05;;;;;;;2.90;59.23;101130.88;1756777;81;21887;-89
2023/12/05 16:44:52;;;;;;;29.42;17.55;;;;;;;2.83;59.49;101127.38;1767037;81;21848;-90
2023/12/05 16:47:59;;;;;;;43.17;17.90;;;;;;;2.58;60.20;101131.74;1768453;79;21307;-88
2023/12/05 16:51:05;;;;;;;36.23;19.50;;;;;;;2.59;60.44;101134.85;1771871;81;21284;-90
2023/12/05 16:54:13;;;;;;;30.43;18.67;;;;;;;2.47;60.69;101137.89;1768237;80;21319;-90
2023/12/05 16:57:22;;;;;;;34.73;18.67;;;;;;;2.52;60.86;101148.38;1769538;81;21343;-90
2023/12/05 17:00:29;;;;;;;37.35;20.45;;;;;;;2.39;61.50;101140.23;1765559;81;21280;-88
2023/12/05 17:03:36;;;;;;;39.73;21.37;;;;;;;2.37;61.74;101148.94;1768102;79;21820;-88
2023/12/05 17:06:43;;;;;;;44.42;23.98;;;;;;;2.44;61.59;101150.72;1773223;80;21829;-89
2023/12/05 17:09:51;;;;;;;72.05;46.48;;;;;;;2.42;62.09;101133.29;1769833;79;21272;-87
2023/12/05 17:12:57;;;;;;;61.70;38.63;;;;;;;2.43;62.20;101132.80;1778169;80;21263;-87
2023/12/05 17:16:03;;;;;;;73.57;47.58;;;;;;;2.46;62.17;101131.25;1771311;80;21920;-89
2023/12/05 17:19:11;;;;;;;52.83;33.60;;;;;;;2.51;62.30;101136.72;1780494;79;21283;-88
2023/12/05 17:22:24;;;;;;;153.90;115.52;;;;;;;2.48;62.17;101129.30;1753504;79;21323;-88
2023/12/05 17:25:26;;;;;;;103.85;78.10;;;;;;;2.37;62.66;101126.47;1765474;80;21331;-87
2023/12/05 17:28:34;;;;;;;179.12;142.07;;;;;;;2.39;62.67;101118.63;1765609;80;21653;-89
2023/12/05 17:31:40;;;;;;;123.67;89.42;;;;;;;2.37;62.75;101117.89;1745074;82;21276;-90
2023/12/05 17:34:47;;;;;;;63.25;39.35;;;;;;;2.42;62.64;101106.77;1743298;81;21276;-88
2023/12/05 17:37:54;;;;;;;81.45;54.15;;;;;;;2.49;62.60;101094.56;1743813;82;21331;-89
2023/12/05 17:41:02;;;;;;;48.50;30.62;;;;;;;2.51;62.68;101105.66;1744759;82;21816;-89
2023/12/05 17:44:08;;;;;;;58.10;33.83;;;;;;;2.59;62.61;101110.55;1744005;82;21915;-89
2023/12/05 17:47:15;;;;;;;57.30;36.03;;;;;;;2.51;62.61;101122.35;1742774;82;21901;-89
2023/12/05 17:50:21;;;;;;;56.55;34.10;;;;;;;2.43;62.80;101121.51;1743700;81;21212;-90
2023/12/05 17:53:30;;;;;;;47.38;23.75;;;;;;;2.41;62.57;101131.56;1743866;82;21208;-89
2023/12/05 17:56:36;;;;;;;55.10;32.30;;;;;;;2.51;62.27;101143.95;1724544;82;21303;-91
2023/12/05 17:59:44;;;;;;;46.77;25.15;;;;;;;2.47;62.19;101149.18;1711705;83;21345;-89
2023/12/05 18:02:51;;;;;;;115.08;89.55;;;;;;;2.54;61.70;101149.13;1720137;83;21625;-87
2023/12/05 18:05:59;;;;;;;52.23;33.33;;;;;;;2.44;61.92;101142.63;1729973;82;21340;-88
2023/12/05 18:09:08;;;;;;;40.67;24.47;;;;;;;2.24;62.53;101141.27;1701086;83;21829;-89
2023/12/05 18:12:16;;;;;;;42.98;28.52;;;;;;;2.24;62.53;101141.27;1701575;83;21344;-89
2023/12/05 18:15:23;;;;;;;33.08;21.07;;;;;;;2.26;62.11;101148.31;1700720;83;21912;-89
2023/12/05 18:18:29;;;;;;;53.13;38.33;;;;;;;2.17;62.11;101138.13;1699686;83;21880;-89
2023/12/05 18:21:36;;;;;;;44.33;24.25;;;;;;;2.21;61.78;101141.02;1704144;83;21312;-89
2023/12/05 18:24:43;;;;;;;32.63;18.65;;;;;;;2.09;61.92;101139.61;1706047;83;21305;-91
2023/12/05 18:27:49;;;;;;;34.88;21.82;;;;;;;2.10;62.03;101130.05;1701626;84;21861;-90
2023/12/05 18:30:55;;;;;;;31.33;18.20;;;;;;;1.71;63.20;101142.50;1711854;82;21331;-90
2023/12/05 18:34:03;;;;;;;26.30;16.23;;;;;;;1.84;63.23;101148.45;1705805;83;21324;-89
2023/12/05 18:37:10;;;;;;;25.30;15.00;;;;;;;1.74;63.72;101142.77;1684446;84;21319;-90
2023/12/05 18:40:17;;;;;;;29.52;17.95;;;;;;;1.83;63.39;101137.26;1706105;84;21324;-89
2023/12/05 18:43:37;;;;;;;29.20;16.67;;;;;;;1.78;63.51;101135.72;1752698;81;21902;-89
2023/12/05 18:46:41;;;;;;;34.98;17.30;;;;;;;1.78;63.62;101142.47;1734858;80;21140;-89
2023/12/05 18:49:48;;;;;;;36.00;18.48;;;;;;;1.82;63.51;101134.19;1719140;82;21296;-90
2023/12/05 18:52:58;;;;;;;34.33;18.10;;;;;;;1.89;63.20;101128.78;1732161;83;21358;-90
2023/12/05 18:56:07;;;;;;;34.45;18.92;;;;;;;1.94;63.18;101142.84;1732031;82;21271;-90
2023/12/05 18:59:15;;;;;;;40.58;19.92;;;;;;;1.93;63.25;101147.38;1731791;82;21866;-89
2023/12/05 19:02:21;;;;;;;62.88;28.52;;;;;;;1.89;63.46;101142.27;1729826;81;21338;-90
2023/12/05 19:05:27;;;;;;;61.00;26.65;;;;;;;1.82;63.76;101142.28;1758573;81;21761;-89
2023/12/05 19:08:37;;;;;;;54.25;27.05;;;;;;;1.96;63.29;101136.84;1727652;81;21327;-90
2023/12/05 19:11:43;;;;;;;58.68;27.10;;;;;;;2.03;63.34;101130.09;1749748;81;21638;-89
2023/12/05 19:14:50;;;;;;;49.27;29.00;;;;;;;1.81;63.87;101120.32;1765879;81;21339;-88
2023/12/05 19:18:01;;;;;;;52.75;30.85;;;;;;;1.89;63.90;101127.44;1763052;81;21353;-91
2023/12/05 19:21:15;;;;;;;44.93;28.15;;;;;;;2.04;63.51;101119.67;1767981;79;21303;-87
2023/12/05 19:24:22;;;;;;;49.42;26.40;;;;;;;2.11;63.30;101125.02;1766340;81;21822;-89
2023/12/05 19:27:28;;;;;;;52.00;26.23;;;;;;;2.17;62.97;101117.02;1765986;81;21339;-88
2023/12/05 19:30:34;;;;;;;59.67;30.95;;;;;;;2.19;62.53;101114.59;1763325;81;21308;-87
2023/12/05 19:33:43;;;;;;;52.98;28.85;;;;;;;2.16;62.37;101120.18;1770066;79;21872;-88
2023/12/05 19:36:48;;;;;;;51.30;27.77;;;;;;;2.05;62.52;101119.55;1777696;80;21275;-87
2023/12/05 19:39:55;;;;;;;50.48;28.65;;;;;;;2.14;62.35;101112.69;1775233;80;21299;-88
2023/12/05 19:43:05;;;;;;;51.90;28.15;;;;;;;2.22;62.12;101109.48;1767589;81;21327;-88
2023/12/05 19:46:11;;;;;;;63.15;32.40;;;;;;;2.05;62.37;101101.16;1768430;81;21320;-89
2023/12/05 19:49:18;;;;;;;50.55;29.92;;;;;;;2.12;62.23;101093.05;1766980;81;21335;-89
2023/12/05 19:52:25;;;;;;;59.98;43.50;;;;;;;2.05;62.50;101089.88;1747058;81;21907;-88
2023/12/05 19:55:24;;;;;;;62.93;33.67;;;;;;;2.07;62.28;101083.05;1769406;81;21272;-89
2023/12/05 19:58:31;;;;;;;55.52;37.25;;;;;;;2.14;61.98;101091.58;1768160;81;21331;-88
2023/12/05 20:01:37;;;;;;;97.47;78.97;;;;;;;2.11;61.95;101098.03;1762485;80;21346;-88
2023/12/05 20:04:43;;;;;;;43.30;26.52;;;;;;;2.12;61.66;101099.79;1765154;80;21271;-88
2023/12/05 20:07:49;;;;;;;40.38;25.30;;;;;;;2.11;61.18;101098.52;1779439;80;21319;-90
2023/12/05 20:10:57;;;;;;;58.85;36.40;;;;;;;1.97;61.09;101090.00;1761616;80;21276;-91
2023/12/05 20:14:04;;;;;;;38.23;24.02;;;;;;;2.18;60.47;101082.31;1765757;81;21848;-91
2023/12/05 20:17:11;;;;;;;127.00;100.58;;;;;;;2.13;60.35;101078.57;1767434;81;21279;-91
2023/12/05 20:20:19;;;;;;;64.27;48.65;;;;;;;1.99;60.69;101081.33;1765327;80;21311;-91
2023/12/05 20:23:26;;;;;;;94.32;76.65;;;;;;;1.82;61.13;101066.74;1760568;81;21907;-90
2023/12/05 20:26:34;;;;;;;49.23;39.58;;;;;;;1.77;61.27;101062.52;1768593;81;21280;-89
2023/12/05 20:29:40;;;;;;;77.58;63.02;;;;;;;1.82;60.98;101061.34;1768740;81;21927;-89
2023/12/05 20:32:47;;;;;;;67.40;55.03;;;;;;;1.81;61.32;101057.79;1754730;81;21319;-89
2023/12/05 20:35:52;;;;;;;61.88;47.08;;;;;;;1.82;61.26;101055.95;1756825;80;21316;-89
2023/12/05 20:38:59;;;;;;;53.78;41.55;;;;;;;1.95;61.06;101060.91;1770135;80;21346;-89
2023/12/05 20:42:07;;;;;;;94.97;74.87;;;;;;;1.86;61.29;101063.73;1739889;80;21871;-91
2023/12/05 20:45:14;;;;;;;33.40;23.30;;;;;;;1.75;61.52;101069.86;1770894;81;21268;-89
2023/12/05 20:48:21;;;;;;;44.25;28.85;;;;;;;1.81;61.35;101067.23;1740043;81;21355;-88
2023/12/05 20:51:26;;;;;;;67.17;53.38;;;;;;;1.70;61.24;101061.20;1775461;80;21260;-90
2023/12/05 20:54:34;;;;;;;30.92;21.52;;;;;;;1.62;61.39;101056.79;1768744;79;21273;-90
2023/12/05 20:57:40;;;;;;;22.65;14.43;;;;;;;1.54;61.57;101065.86;1763996;81;21338;-88
2023/12/05 21:00:46;;;;;;;25.60;16.77;;;;;;;1.69;60.95;101082.38;1764213;81;21338;-91
2023/12/05 21:03:53;;;;;;;23.18;13.68;;;;;;;1.69;60.66;101074.28;1769971;80;21394;-88
2023/12/05 21:07:00;;;;;;;21.20;13.08;;;;;;;1.64;60.25;101080.47;1759173;80;21318;-89
2023/12/05 21:10:07;;;;;;;25.85;16.42;;;;;;;1.50;60.49;101066.53;1771006;81;21792;-90
2023/12/05 21:13:14;;;;;;;26.40;14.73;;;;;;;1.30;61.11;101066.11;1769937;81;21338;-91
2023/12/05 21:16:21;;;;;;;22.60;14.45;;;;;;;1.43;60.69;101069.75;1770162;81;21853;-91
2023/12/05 21:19:27;;;;;;;23.55;15.58;;;;;;;1.40;60.68;101065.41;1771455;81;21271;-90
2023/12/05 21:22:33;;;;;;;39.13;25.97;;;;;;;1.15;61.08;101063.43;1735236;82;21303;-91
2023/12/05 21:25:39;;;;;;;70.60;48.28;;;;;;;1.11;61.50;101069.11;1750262;80;21271;-89
2023/12/05 21:28:46;;;;;;;50.88;35.92;;;;;;;1.15;61.55;101064.78;1773628;80;21298;-90
2023/12/05 21:31:53;;;;;;;49.88;35.38;;;;;;;0.91;62.11;101056.91;1771311;81;21286;-91
2023/12/05 21:35:00;;;;;;;28.87;18.95;;;;;;;1.24;61.53;101054.76;1761787;80;21950;-90
2023/12/05 21:38:06;;;;;;;24.70;14.47;;;;;;;1.31;61.06;101057.05;1739120;81;21311;-90
2023/12/05 21:41:13;;;;;;;27.02;14.38;;;;;;;1.33;60.83;101060.53;1733819;80;21311;-90
2023/12/05 21:44:19;;;;;;;25.43;14.47;;;;;;;1.06;61.17;101052.38;1758110;81;21260;-90
2023/12/05 21:47:26;;;;;;;24.75;14.68;;;;;;;1.01;61.48;101059.40;1771204;81;21474;-90
2023/12/05 21:50:33;;;;;;;24.87;13.83;;;;;;;1.05;61.68;101060.08;1764473;81;21300;-88
2023/12/05 21:53:40;;;;;;;21.90;13.15;;;;;;;0.99;61.66;101037.09;1763763;81;21543;-91
2023/12/05 21:56:47;;;;;;;26.27;13.68;;;;;;;1.04;61.67;101043.05;1748024;81;21613;-90
2023/12/05 21:59:54;;;;;;;24.77;12.90;;;;;;;0.98;61.55;101042.93;1772903;81;21273;-89
2023/12/05 22:03:03;;;;;;;22.48;14.23;;;;;;;1.17;61.32;101049.84;1769458;81;21816;-89
2023/12/05 22:06:11;;;;;;;22.17;13.08;;;;;;;1.12;61.20;101045.23;1756393;81;21275;-90
2023/12/05 22:09:16;;;;;;;24.57;13.72;;;;;;;1.05;61.60;101043.42;1740476;81;21283;-88
2023/12/05 22:12:23;;;;;;;23.10;13.10;;;;;;;1.18;61.40;101036.30;1737858;80;21330;-90
2023/12/05 22:15:29;;;;;;;21.70;13.15;;;;;;;0.80;61.98;101041.88;1762705;81;21276;-90
2023/12/05 22:18:36;;;;;;;20.15;12.05;;;;;;;0.81;62.68;101047.67;1762457;81;21264;-89
2023/12/05 22:21:49;;;;;;;20.75;12.75;;;;;;;0.94;62.04;101052.65;1762608;81;21291;-89
2023/12/05 22:24:56;;;;;;;21.93;13.48;;;;;;;0.91;62.04;101051.52;1764746;80;21272;-91
2023/12/05 22:28:02;;;;;;;23.47;12.00;;;;;;;1.11;61.70;101061.89;1762282;81;21307;-88
2023/12/05 22:31:10;;;;;;;23.67;12.23;;;;;;;0.90;61.93;101059.22;1762659;81;21287;-90
2023/12/05 22:34:18;;;;;;;22.45;11.83;;;;;;;1.01;61.70;101055.36;1758390;81;21354;-88
2023/12/05 22:37:25;;;;;;;25.45;11.95;;;;;;;0.95;62.06;101057.96;1730511;82;21311;-89
2023/12/05 22:40:31;;;;;;;20.25;12.47;;;;;;;1.26;61.53;101054.16;1734480;81;21322;-91
2023/12/05 22:43:36;;;;;;;20.72;12.50;;;;;;;1.38;60.97;101047.61;1733486;83;21363;-91
2023/12/05 22:46:42;;;;;;;21.40;12.85;;;;;;;1.28;60.96;101041.95;1727833;83;21932;-88
2023/12/05 22:49:53;;;;;;;29.00;12.78;;;;;;;1.26;61.04;101036.64;1726380;83;21853;-89
2023/12/05 22:52:59;;;;;;;21.05;12.68;;;;;;;1.17;60.97;101035.89;1728659;82;21864;-91
2023/12/05 22:56:06;;;;;;;23.55;14.33;;;;;;;1.16;60.83;101030.13;1731143;82;21919;-90
2023/12/05 22:59:13;;;;;;;22.20;12.70;;;;;;;1.16;61.02;101030.61;1725237;82;21291;-90
2023/12/05 23:02:20;;;;;;;26.27;14.53;;;;;;;1.06;61.12;101020.91;1726103;82;21330;-88
2023/12/05 23:05:20;;;;;;;31.95;14.20;;;;;;;1.12;60.98;101018.29;1736218;82;21183;-89
2023/12/05 23:08:27;;;;;;;26.07;14.13;;;;;;;1.14;60.82;101017.24;1720827;83;21325;-91
2023/12/05 23:11:33;;;;;;;25.40;13.03;;;;;;;1.11;60.93;101012.04;1718501;83;21296;-89
2023/12/05 23:14:33;;;;;;;33.38;13.08;;;;;;;1.22;60.61;101013.58;1722933;83;21888;-90
2023/12/05 23:17:40;;;;;;;21.20;12.75;;;;;;;1.14;60.94;101012.34;1722524;83;21849;-91
2023/12/05 23:20:46;;;;;;;21.82;13.40;;;;;;;1.14;60.87;101005.60;1705545;84;21305;-89
2023/12/05 23:23:51;;;;;;;24.67;12.50;;;;;;;1.18;60.49;100996.36;1729333;82;21296;-89
2023/12/05 23:26:59;;;;;;;18.55;11.78;;;;;;;1.21;60.16;100991.61;1720579;82;21311;-89
2023/12/05 23:30:05;;;;;;;23.80;11.53;;;;;;;1.15;59.96;100994.71;1706565;82;21322;-88
2023/12/05 23:33:11;;;;;;;19.82;11.15;;;;;;;1.13;59.85;100993.06;1705089;82;21939;-88
2023/12/05 23:36:18;;;;;;;22.45;11.60;;;;;;;0.95;59.71;101001.88;1725399;80;21906;-91
2023/12/05 23:39:26;;;;;;;18.00;11.20;;;;;;;0.92;59.90;101008.80;1723602;83;21529;-90
2023/12/05 23:42:34;;;;;;;18.42;11.03;;;;;;;1.07;59.69;101005.59;1727627;83;21340;-89
2023/12/05 23:45:40;;;;;;;23.00;12.10;;;;;;;1.05;59.70;101003.02;1702017;83;21268;-91
2023/12/05 23:48:45;;;;;;;22.37;12.35;;;;;;;1.04;59.83;101012.06;1699808;83;21315;-91
2023/12/05 23:51:52;;;;;;;18.48;11.95;;;;;;;1.15;59.62;101018.97;1700860;83;21206;-89
2023/12/05 23:54:59;;;;;;;18.67;11.20;;;;;;;1.24;59.21;101017.02;1701102;84;21289;-88
2023/12/05 23:58:06;;;;;;;18.50;11.20;;;;;;;0.94;59.35;101013.14;1703608;84;21312;-89
